createdAt,value
2023-01-22T00:02:08.000Z,2.77
2023-01-22T00:04:33.000Z,2.7
2023-01-22T00:06:58.000Z,2.65
2023-01-22T00:09:24.000Z,2.7
2023-01-22T00:11:51.000Z,2.6
2023-01-22T00:14:16.000Z,2.5
2023-01-22T00:16:43.000Z,2.67
2023-01-22T00:19:08.000Z,2.58
2023-01-22T00:21:33.000Z,2.7
2023-01-22T00:24:00.000Z,2.5
2023-01-22T00:26:26.000Z,2.62
2023-01-22T00:28:53.000Z,2.2
2023-01-22T00:31:19.000Z,2.67
2023-01-22T00:33:44.000Z,2.4
2023-01-22T00:36:12.000Z,2.57
2023-01-22T00:38:37.000Z,2.55
2023-01-22T00:41:04.000Z,2.42
2023-01-22T00:43:29.000Z,2.5
2023-01-22T00:45:54.000Z,2.37
2023-01-22T00:48:20.000Z,2.2
2023-01-22T00:50:46.000Z,2.3
2023-01-22T00:53:14.000Z,2.4
2023-01-22T00:55:38.000Z,2.33
2023-01-22T00:58:04.000Z,2.7
2023-01-22T01:00:40.000Z,2.67
2023-01-22T01:02:55.000Z,2.5
2023-01-22T01:05:21.000Z,2.6
2023-01-22T01:07:48.000Z,2.67
2023-01-22T01:10:19.000Z,2.9
2023-01-22T01:12:41.000Z,2.87
2023-01-22T01:15:07.000Z,2.62
2023-01-22T01:17:33.000Z,3.08
2023-01-22T01:19:58.000Z,2.87
2023-01-22T01:22:25.000Z,2.55
2023-01-22T01:24:51.000Z,2.87
2023-01-22T01:27:18.000Z,2.7
2023-01-22T01:29:44.000Z,2.55
2023-01-22T01:32:09.000Z,2.5
2023-01-22T01:34:35.000Z,2.7
2023-01-22T01:37:00.000Z,2.8
2023-01-22T01:39:29.000Z,2.57
2023-01-22T01:41:53.000Z,2.35
2023-01-22T01:44:19.000Z,2.75
2023-01-22T01:46:44.000Z,2.58
2023-01-22T01:49:11.000Z,2.15
2023-01-22T01:51:37.000Z,2.3
2023-01-22T01:54:02.000Z,2.1
2023-01-22T01:56:27.000Z,2.1
2023-01-22T01:58:54.000Z,2.23
2023-01-22T02:01:23.000Z,1.8
2023-01-22T02:03:47.000Z,1.95
2023-01-22T02:06:11.000Z,1.9
2023-01-22T02:08:38.000Z,1.7
2023-01-22T02:11:04.000Z,1.65
2023-01-22T02:13:29.000Z,1.8
2023-01-22T02:15:57.000Z,2
2023-01-22T02:18:23.000Z,2
2023-01-22T02:20:48.000Z,1.95
2023-01-22T02:23:14.000Z,1.85
2023-01-22T02:25:39.000Z,2.15
2023-01-22T02:28:06.000Z,2
2023-01-22T02:30:31.000Z,2.1
2023-01-22T02:32:57.000Z,2.02
2023-01-22T02:35:24.000Z,2
2023-01-22T02:37:50.000Z,2
2023-01-22T02:40:19.000Z,1.8
2023-01-22T02:42:41.000Z,3.17
2023-01-22T02:45:09.000Z,2.7
2023-01-22T02:47:35.000Z,3.47
2023-01-22T02:50:00.000Z,3.3
2023-01-22T02:52:27.000Z,3.4
2023-01-22T02:54:54.000Z,3.35
2023-01-22T02:57:19.000Z,3
2023-01-22T02:59:51.000Z,2.8
2023-01-22T03:02:11.000Z,3.1
2023-01-22T03:04:38.000Z,3.22
2023-01-22T03:07:02.000Z,3.08
2023-01-22T03:09:30.000Z,2.77
2023-01-22T03:11:56.000Z,3.58
2023-01-22T03:14:21.000Z,3.3
2023-01-22T03:16:48.000Z,3.63
2023-01-22T03:19:14.000Z,3.3
2023-01-22T03:21:39.000Z,2.93
2023-01-22T03:24:05.000Z,2.5
2023-01-22T03:26:32.000Z,2.4
2023-01-22T03:28:58.000Z,2.37
2023-01-22T03:31:24.000Z,1.92
2023-01-22T03:33:50.000Z,1.87
2023-01-22T03:36:17.000Z,2.3
2023-01-22T03:38:43.000Z,2.4
2023-01-22T03:41:09.000Z,2
2023-01-22T03:43:35.000Z,2.45
2023-01-22T03:46:00.000Z,2
2023-01-22T03:48:26.000Z,2
2023-01-22T03:50:53.000Z,2
2023-01-22T03:53:19.000Z,2.35
2023-01-22T03:55:45.000Z,2.27
2023-01-22T03:58:10.000Z,2.2
2023-01-22T04:00:40.000Z,2.2
2023-01-22T04:03:02.000Z,2.1
2023-01-22T04:05:28.000Z,2.1
2023-01-22T04:07:53.000Z,1.85
2023-01-22T04:10:20.000Z,1.77
2023-01-22T04:12:45.000Z,1.9
2023-01-22T04:15:11.000Z,1.85
2023-01-22T04:17:37.000Z,1.6
2023-01-22T04:20:03.000Z,1.65
2023-01-22T04:22:28.000Z,1.65
2023-01-22T04:24:55.000Z,1.5
2023-01-22T04:27:21.000Z,1.98
2023-01-22T04:29:46.000Z,1.8
2023-01-22T04:32:13.000Z,1.9
2023-01-22T04:34:39.000Z,2.98
2023-01-22T04:37:04.000Z,3.5
2023-01-22T04:39:31.000Z,3.15
2023-01-22T04:41:56.000Z,3.3
2023-01-22T04:44:25.000Z,3.03
2023-01-22T04:46:50.000Z,2.83
2023-01-22T04:49:16.000Z,2.73
2023-01-22T04:51:44.000Z,2.5
2023-01-22T04:54:09.000Z,2.33
2023-01-22T04:56:35.000Z,2.45
2023-01-22T04:59:00.000Z,3
2023-01-22T05:01:27.000Z,2.4
2023-01-22T05:03:52.000Z,2.4
2023-01-22T05:06:18.000Z,2.6
2023-01-22T05:08:45.000Z,2.1
2023-01-22T05:11:11.000Z,2.8
2023-01-22T05:13:37.000Z,3
2023-01-22T05:16:03.000Z,3.1
2023-01-22T05:18:30.000Z,3.5
2023-01-22T05:20:56.000Z,3.6
2023-01-22T05:23:23.000Z,3.37
2023-01-22T05:25:50.000Z,3.52
2023-01-22T05:28:16.000Z,3.13
2023-01-22T05:30:42.000Z,3.63
2023-01-22T05:33:07.000Z,3.35
2023-01-22T05:35:33.000Z,3.7
2023-01-22T05:38:00.000Z,3.52
2023-01-22T05:40:27.000Z,3.7
2023-01-22T05:42:52.000Z,3.92
2023-01-22T05:45:18.000Z,4.22
2023-01-22T05:50:15.000Z,4.23
2023-01-22T05:52:41.000Z,4.43
2023-01-22T05:55:07.000Z,4.47
2023-01-22T05:57:34.000Z,4.9
2023-01-22T06:00:10.000Z,4.8
2023-01-22T06:02:59.000Z,5.23
2023-01-22T06:04:52.000Z,6.3
2023-01-22T06:07:18.000Z,5.33
2023-01-22T06:09:45.000Z,4.8
2023-01-22T06:12:10.000Z,5.3
2023-01-22T06:14:37.000Z,5
2023-01-22T06:17:04.000Z,5.22
2023-01-22T06:19:28.000Z,5.12
2023-01-22T06:21:54.000Z,5
2023-01-22T06:24:20.000Z,4.97
2023-01-22T06:26:48.000Z,5.1
2023-01-22T06:29:13.000Z,5.17
2023-01-22T06:31:39.000Z,5.07
2023-01-22T06:34:05.000Z,4.8
2023-01-22T06:36:30.000Z,4
2023-01-22T06:38:57.000Z,4.17
2023-01-22T06:41:24.000Z,3.5
2023-01-22T06:43:49.000Z,2.9
2023-01-22T06:46:16.000Z,2.9
2023-01-22T06:48:42.000Z,2.75
2023-01-22T06:51:08.000Z,2.9
2023-01-22T06:53:33.000Z,3.1
2023-01-22T06:55:59.000Z,3.1
2023-01-22T06:58:26.000Z,2.87
2023-01-22T07:01:02.000Z,2.8
2023-01-22T07:03:17.000Z,3.03
2023-01-22T07:05:43.000Z,3
2023-01-22T07:08:10.000Z,3.15
2023-01-22T07:10:34.000Z,2.9
2023-01-22T07:13:01.000Z,3.35
2023-01-22T07:15:26.000Z,3
2023-01-22T07:17:52.000Z,2.8
2023-01-22T07:20:18.000Z,2.5
2023-01-22T07:22:44.000Z,2.9
2023-01-22T07:25:10.000Z,2.62
2023-01-22T07:27:35.000Z,2.7
2023-01-22T07:30:02.000Z,2.17
2023-01-22T07:32:29.000Z,2.47
2023-01-22T07:34:54.000Z,2.37
2023-01-22T07:37:20.000Z,1.9
2023-01-22T07:39:46.000Z,2.1
2023-01-22T07:42:12.000Z,2.15
2023-01-22T07:44:37.000Z,1.8
2023-01-22T07:47:04.000Z,1.9
2023-01-22T07:49:29.000Z,1.6
2023-01-22T07:51:56.000Z,1.9
2023-01-22T07:54:22.000Z,2.42
2023-01-22T07:56:48.000Z,2.08
2023-01-22T07:59:20.000Z,1.87
2023-01-22T08:02:01.000Z,1.9
2023-01-22T08:04:06.000Z,2.1
2023-01-22T08:06:31.000Z,2
2023-01-22T08:08:56.000Z,2.2
2023-01-22T08:11:23.000Z,2.72
2023-01-22T08:13:49.000Z,3.03
2023-01-22T08:16:15.000Z,2.6
2023-01-22T08:18:40.000Z,2.37
2023-01-22T08:21:06.000Z,2.1
2023-01-22T08:23:33.000Z,2.2
2023-01-22T08:25:59.000Z,1.9
2023-01-22T08:28:25.000Z,1.92
2023-01-22T08:30:51.000Z,2.1
2023-01-22T08:33:17.000Z,1.8
2023-01-22T08:35:42.000Z,1.87
2023-01-22T08:38:08.000Z,1.77
2023-01-22T08:40:39.000Z,1.95
2023-01-22T08:43:01.000Z,1.82
2023-01-22T08:45:26.000Z,2.27
2023-01-22T08:47:52.000Z,2.23
2023-01-22T08:50:20.000Z,2.2
2023-01-22T08:52:43.000Z,2.62
2023-01-22T08:55:09.000Z,3.43
2023-01-22T08:57:34.000Z,3.4
2023-01-22T08:59:59.000Z,3.5
2023-01-22T09:02:25.000Z,3.7
2023-01-22T09:04:52.000Z,3.4
2023-01-22T09:07:17.000Z,3.37
2023-01-22T09:09:43.000Z,4.13
2023-01-22T09:12:10.000Z,3.8
2023-01-22T09:14:35.000Z,3.7
2023-01-22T09:17:00.000Z,3.93
2023-01-22T09:19:25.000Z,3.9
2023-01-22T09:21:52.000Z,4.12
2023-01-22T09:24:18.000Z,4.58
2023-01-22T09:26:43.000Z,4.67
2023-01-22T09:29:09.000Z,5.5
2023-01-22T09:31:34.000Z,4.87
2023-01-22T09:34:01.000Z,4.03
2023-01-22T09:36:26.000Z,3.45
2023-01-22T09:38:53.000Z,4.03
2023-01-22T09:41:18.000Z,3.62
2023-01-22T09:43:44.000Z,4.17
2023-01-22T09:46:10.000Z,4.3
2023-01-22T09:48:35.000Z,5.08
2023-01-22T09:51:01.000Z,4.1
2023-01-22T09:53:28.000Z,3.8
2023-01-22T09:55:53.000Z,3.58
2023-01-22T09:58:18.000Z,3.92
2023-01-22T10:00:51.000Z,3.77
2023-01-22T10:03:11.000Z,4.03
2023-01-22T10:05:36.000Z,4.03
2023-01-22T10:08:01.000Z,4.2
2023-01-22T10:10:29.000Z,4.22
2023-01-22T10:12:54.000Z,4.2
2023-01-22T10:15:20.000Z,4.47
2023-01-22T10:17:46.000Z,6.1
2023-01-22T10:20:10.000Z,5.73
2023-01-22T10:22:36.000Z,7.72
2023-01-22T10:25:03.000Z,6.9
2023-01-22T10:27:28.000Z,6.22
2023-01-22T10:29:55.000Z,6.5
2023-01-22T10:32:20.000Z,6.53
2023-01-22T10:34:46.000Z,7.97
2023-01-22T10:37:11.000Z,7.4
2023-01-22T10:39:37.000Z,7.23
2023-01-22T10:42:02.000Z,7.5
2023-01-22T10:44:29.000Z,7.92
2023-01-22T10:46:54.000Z,8.23
2023-01-22T10:49:20.000Z,8.1
2023-01-22T10:51:45.000Z,7.1
2023-01-22T10:54:13.000Z,7.9
2023-01-22T10:56:37.000Z,7.47
2023-01-22T10:59:02.000Z,7.03
2023-01-22T11:01:31.000Z,7.75
2023-01-22T11:03:54.000Z,7.45
2023-01-22T11:06:21.000Z,7.55
2023-01-22T11:08:46.000Z,7.45
2023-01-22T11:11:11.000Z,6.47
2023-01-22T11:13:37.000Z,6.87
2023-01-22T11:16:04.000Z,7.17
2023-01-22T11:18:32.000Z,6.97
2023-01-22T11:20:54.000Z,6.33
2023-01-22T11:23:20.000Z,5.62
2023-01-22T11:25:47.000Z,5.4
2023-01-22T11:28:13.000Z,5.33
2023-01-22T11:30:37.000Z,5.7
2023-01-22T11:33:04.000Z,5.72
2023-01-22T11:35:29.000Z,5.62
2023-01-22T11:37:55.000Z,5.37
2023-01-22T11:40:23.000Z,4.9
2023-01-22T11:42:46.000Z,5.2
2023-01-22T11:45:13.000Z,5.6
2023-01-22T11:47:38.000Z,5.12
2023-01-22T11:50:03.000Z,5.03
2023-01-22T11:52:29.000Z,4.9
2023-01-22T11:54:55.000Z,5.2
2023-01-22T11:57:22.000Z,5.12
2023-01-22T11:59:49.000Z,4.87
2023-01-22T12:02:34.000Z,4.97
2023-01-22T12:04:39.000Z,4.95
2023-01-22T12:07:05.000Z,5.4
2023-01-22T12:09:30.000Z,5.08
2023-01-22T12:11:56.000Z,6.12
2023-01-22T12:14:22.000Z,6
2023-01-22T12:16:47.000Z,5.3
2023-01-22T12:19:13.000Z,5.2
2023-01-22T12:21:39.000Z,4.78
2023-01-22T12:24:05.000Z,4.9
2023-01-22T12:26:30.000Z,4.95
2023-01-22T12:28:56.000Z,4.8
2023-01-22T12:31:23.000Z,4.93
2023-01-22T12:33:50.000Z,5.03
2023-01-22T12:36:15.000Z,4.8
2023-01-22T12:38:43.000Z,4.4
2023-01-22T12:41:09.000Z,4.45
2023-01-22T12:43:34.000Z,4.6
2023-01-22T12:46:00.000Z,4.15
2023-01-22T12:48:26.000Z,4.3
2023-01-22T12:50:52.000Z,4.1
2023-01-22T12:53:17.000Z,3.85
2023-01-22T12:55:44.000Z,4.08
2023-01-22T12:58:08.000Z,4.1
2023-01-22T13:00:36.000Z,3.8
2023-01-22T13:03:01.000Z,3.8
2023-01-22T13:05:25.000Z,3.9
2023-01-22T13:07:51.000Z,3.72
2023-01-22T13:10:18.000Z,4.2
2023-01-22T13:12:43.000Z,3.7
2023-01-22T13:15:09.000Z,3.7
2023-01-22T13:17:34.000Z,3.77
2023-01-22T13:20:01.000Z,4.07
2023-01-22T13:22:27.000Z,3.52
2023-01-22T13:24:52.000Z,4.1
2023-01-22T13:27:20.000Z,3.65
2023-01-22T13:29:48.000Z,3.97
2023-01-22T13:32:14.000Z,3.9
2023-01-22T13:34:39.000Z,3.9
2023-01-22T13:37:07.000Z,3.55
2023-01-22T13:39:31.000Z,3.47
2023-01-22T13:41:58.000Z,3.67
2023-01-22T13:44:23.000Z,3.3
2023-01-22T13:46:49.000Z,3.6
2023-01-22T13:49:15.000Z,3.7
2023-01-22T13:51:41.000Z,3.45
2023-01-22T13:54:06.000Z,3.45
2023-01-22T13:56:34.000Z,3.55
2023-01-22T13:58:57.000Z,3.5
2023-01-22T14:01:26.000Z,3.6
2023-01-22T14:03:49.000Z,3.67
2023-01-22T14:06:15.000Z,3.83
2023-01-22T14:08:40.000Z,4.3
2023-01-22T14:11:07.000Z,4.2
2023-01-22T14:13:33.000Z,4.3
2023-01-22T14:15:59.000Z,4.45
2023-01-22T14:18:25.000Z,4.58
2023-01-22T14:20:50.000Z,4.7
2023-01-22T14:23:16.000Z,4.5
2023-01-22T14:25:42.000Z,4.1
2023-01-22T14:28:07.000Z,4.2
2023-01-22T14:30:33.000Z,3.92
2023-01-22T14:32:59.000Z,3.92
2023-01-22T14:35:26.000Z,4.05
2023-01-22T14:37:51.000Z,3.9
2023-01-22T14:40:17.000Z,3.98
2023-01-22T14:42:44.000Z,3.6
2023-01-22T14:45:10.000Z,3.33
2023-01-22T14:47:35.000Z,3.9
2023-01-22T14:50:00.000Z,3.4
2023-01-22T14:52:27.000Z,4.4
2023-01-22T14:54:53.000Z,4.53
2023-01-22T14:57:19.000Z,4.4
2023-01-22T14:59:50.000Z,4.3
2023-01-22T15:02:11.000Z,3.85
2023-01-22T15:04:36.000Z,3.85
2023-01-22T15:07:02.000Z,3.67
2023-01-22T15:09:27.000Z,3.2
2023-01-22T15:11:55.000Z,3.08
2023-01-22T15:14:19.000Z,3.1
2023-01-22T15:16:48.000Z,3.5
2023-01-22T15:19:15.000Z,3.55
2023-01-22T15:21:49.000Z,3
2023-01-22T15:24:08.000Z,3.2
2023-01-22T15:26:32.000Z,3.33
2023-01-22T15:28:57.000Z,3.12
2023-01-22T15:31:24.000Z,3
2023-01-22T15:33:49.000Z,2.85
2023-01-22T15:36:14.000Z,2.9
2023-01-22T15:38:41.000Z,2.9
2023-01-22T15:41:08.000Z,2.8
2023-01-22T15:43:34.000Z,2.87
2023-01-22T15:45:58.000Z,2.6
2023-01-22T15:48:24.000Z,2.5
2023-01-22T15:50:50.000Z,2.57
2023-01-22T15:53:20.000Z,2.53
2023-01-22T15:55:42.000Z,2.52
2023-01-22T15:58:08.000Z,2.5
2023-01-22T16:00:40.000Z,2.6
2023-01-22T16:03:08.000Z,2.55
2023-01-22T16:05:26.000Z,2.67
2023-01-22T16:07:53.000Z,2.2
2023-01-22T16:10:22.000Z,2.17
2023-01-22T16:12:44.000Z,2.17
2023-01-22T16:15:11.000Z,2.2
2023-01-22T16:17:36.000Z,2.27
2023-01-22T16:20:03.000Z,1.87
2023-01-22T16:22:27.000Z,1.9
2023-01-22T16:24:52.000Z,1.9
2023-01-22T16:27:19.000Z,2.1
2023-01-22T16:29:46.000Z,1.87
2023-01-22T16:32:12.000Z,1.8
2023-01-22T16:34:37.000Z,1.7
2023-01-22T16:37:02.000Z,2.1
2023-01-22T16:39:30.000Z,1.92
2023-01-22T16:42:11.000Z,1.82
2023-01-22T16:44:21.000Z,1.6
2023-01-22T16:46:45.000Z,1.8
2023-01-22T16:49:11.000Z,1.63
2023-01-22T16:51:39.000Z,1.7
2023-01-22T16:54:04.000Z,1.55
2023-01-22T16:56:29.000Z,1.5
2023-01-22T16:58:53.000Z,1.7
2023-01-22T17:01:20.000Z,2.03
2023-01-22T17:03:46.000Z,1.7
2023-01-22T17:06:11.000Z,1.72
2023-01-22T17:08:40.000Z,1.6
2023-01-22T17:11:02.000Z,1.95
2023-01-22T17:13:35.000Z,1.7
2023-01-22T17:15:54.000Z,2.02
2023-01-22T17:18:20.000Z,2.12
2023-01-22T17:20:46.000Z,1.73
2023-01-22T17:23:10.000Z,1.83
2023-01-22T17:25:36.000Z,2
2023-01-22T17:28:03.000Z,2.33
2023-01-22T17:30:32.000Z,2.1
2023-01-22T17:32:54.000Z,2.3
2023-01-22T17:35:19.000Z,2.4
2023-01-22T17:37:46.000Z,2.5
2023-01-22T17:40:37.000Z,2.22
2023-01-22T17:42:48.000Z,2.23
2023-01-22T17:45:03.000Z,2.4
2023-01-22T17:47:29.000Z,2.4
2023-01-22T17:49:55.000Z,2.63
2023-01-22T17:52:20.000Z,2.62
2023-01-22T17:54:47.000Z,2.5
2023-01-22T17:57:12.000Z,2.3
2023-01-22T17:59:44.000Z,2.58
2023-01-22T18:02:05.000Z,2.47
2023-01-22T18:04:29.000Z,2.6
2023-01-22T18:06:55.000Z,2.4
2023-01-22T18:09:22.000Z,2.5
2023-01-22T18:11:48.000Z,2.4
2023-01-22T18:14:11.000Z,2.7
2023-01-22T18:16:38.000Z,2.63
2023-01-22T18:19:04.000Z,2.5
2023-01-22T18:21:29.000Z,2.6
2023-01-22T18:23:55.000Z,2.37
2023-01-22T18:26:21.000Z,2.5
2023-01-22T18:28:47.000Z,2.2
2023-01-22T18:31:13.000Z,2.2
2023-01-22T18:33:38.000Z,2.3
2023-01-22T18:36:04.000Z,2.33
2023-01-22T18:38:32.000Z,2.5
2023-01-22T18:40:58.000Z,2.2
2023-01-22T18:43:23.000Z,2
2023-01-22T18:45:48.000Z,2.4
2023-01-22T18:48:14.000Z,1.9
2023-01-22T18:50:42.000Z,2
2023-01-22T18:53:06.000Z,1.8
2023-01-22T18:55:31.000Z,2
2023-01-22T18:57:57.000Z,2.5
2023-01-22T19:00:26.000Z,3.2
2023-01-22T19:02:48.000Z,2.5
2023-01-22T19:05:14.000Z,2.8
2023-01-22T19:07:41.000Z,3
2023-01-22T19:10:07.000Z,2.8
2023-01-22T19:12:32.000Z,2.8
2023-01-22T19:14:57.000Z,2.6
2023-01-22T19:17:23.000Z,2.5
2023-01-22T19:19:50.000Z,2.35
2023-01-22T19:22:14.000Z,2.13
2023-01-22T19:24:41.000Z,2.37
2023-01-22T19:27:07.000Z,2.17
2023-01-22T19:29:34.000Z,2.03
2023-01-22T19:31:58.000Z,1.9
2023-01-22T19:34:25.000Z,2.12
2023-01-22T19:36:51.000Z,2
2023-01-22T19:39:15.000Z,1.8
2023-01-22T19:41:41.000Z,1.7
2023-01-22T19:44:07.000Z,1.97
2023-01-22T19:46:40.000Z,1.9
2023-01-22T19:49:02.000Z,1.9
2023-01-22T19:51:25.000Z,2.3
2023-01-22T19:53:51.000Z,1.9
2023-01-22T19:56:16.000Z,1.8
2023-01-22T19:58:42.000Z,2.1
2023-01-22T20:01:08.000Z,1.9
2023-01-22T20:03:33.000Z,2.35
2023-01-22T20:05:59.000Z,2
2023-01-22T20:08:27.000Z,2.13
2023-01-22T20:10:51.000Z,2.1
2023-01-22T20:13:15.000Z,2.45
2023-01-22T20:15:41.000Z,2.72
2023-01-22T20:18:07.000Z,2.5
2023-01-22T20:20:34.000Z,1.95
2023-01-22T20:22:58.000Z,1.98
2023-01-22T20:25:25.000Z,1.9
2023-01-22T20:27:50.000Z,1.8
2023-01-22T20:30:16.000Z,1.77
2023-01-22T20:32:44.000Z,1.65
2023-01-22T20:35:09.000Z,2.1
2023-01-22T20:37:34.000Z,2
2023-01-22T20:40:01.000Z,2
2023-01-22T20:42:26.000Z,1.87
2023-01-22T20:44:53.000Z,1.7
2023-01-22T20:47:19.000Z,1.6
2023-01-22T20:49:43.000Z,2.2
2023-01-22T20:52:08.000Z,3
2023-01-22T20:54:40.000Z,2.5
2023-01-22T20:57:01.000Z,2.67
2023-01-22T20:59:32.000Z,2.73
2023-01-22T21:01:57.000Z,2.5
2023-01-22T21:04:18.000Z,2.4
2023-01-22T21:06:44.000Z,2.08
2023-01-22T21:09:10.000Z,2.3
2023-01-22T21:11:36.000Z,2.2
2023-01-22T21:14:02.000Z,2.1
2023-01-22T21:16:27.000Z,2
2023-01-22T21:18:52.000Z,1.87
2023-01-22T21:21:19.000Z,2.08
2023-01-22T21:23:45.000Z,2.6
2023-01-22T21:26:10.000Z,2.8
2023-01-22T21:28:35.000Z,2.6
2023-01-22T21:31:01.000Z,2.4
2023-01-22T21:33:28.000Z,2.2
2023-01-22T21:35:52.000Z,2.3
2023-01-22T21:38:19.000Z,2.23
2023-01-22T21:40:47.000Z,1.9
2023-01-22T21:43:10.000Z,2.35
2023-01-22T21:45:38.000Z,2.12
2023-01-22T21:48:01.000Z,1.9
2023-01-22T21:50:28.000Z,1.82
2023-01-22T21:52:53.000Z,1.8
2023-01-22T21:55:21.000Z,2.1
2023-01-22T21:57:45.000Z,1.85
2023-01-22T22:00:15.000Z,2
2023-01-22T22:02:36.000Z,1.8
2023-01-22T22:05:02.000Z,1.97
2023-01-22T22:07:27.000Z,1.83
2023-01-22T22:09:54.000Z,1.92
2023-01-22T22:12:20.000Z,1.6
2023-01-22T22:14:45.000Z,1.6
2023-01-22T22:17:10.000Z,1.7
2023-01-22T22:19:38.000Z,1.45
2023-01-22T22:22:02.000Z,1.6
2023-01-22T22:24:28.000Z,1.7
2023-01-22T22:26:54.000Z,1.8
2023-01-22T22:29:20.000Z,1.9
2023-01-22T22:31:44.000Z,1.8
2023-01-22T22:34:11.000Z,2.1
2023-01-22T22:36:37.000Z,1.8
2023-01-22T22:39:04.000Z,2.9
2023-01-22T22:41:57.000Z,3.5
2023-01-22T22:44:24.000Z,3.83
2023-01-22T22:46:21.000Z,4.3
2023-01-22T22:48:46.000Z,4.17
2023-01-22T22:51:11.000Z,3.3
2023-01-22T22:53:42.000Z,2.7
2023-01-22T22:56:06.000Z,2.7
2023-01-22T22:58:30.000Z,2.83
2023-01-22T23:01:00.000Z,2.98
2023-01-22T23:03:21.000Z,2.7
2023-01-22T23:05:46.000Z,2.83
2023-01-22T23:08:12.000Z,3.13
2023-01-22T23:10:40.000Z,3.15
2023-01-22T23:13:03.000Z,3.37
2023-01-22T23:15:29.000Z,3.87
2023-01-22T23:17:56.000Z,3.83
2023-01-22T23:20:24.000Z,4.1
2023-01-22T23:22:46.000Z,3.9
2023-01-22T23:25:13.000Z,3.98
2023-01-22T23:27:38.000Z,4.6
2023-01-22T23:30:05.000Z,4.2
2023-01-22T23:32:32.000Z,4.5
2023-01-22T23:34:57.000Z,4.8
2023-01-22T23:37:22.000Z,4.37
2023-01-22T23:39:49.000Z,4.2
2023-01-22T23:42:13.000Z,4.3
2023-01-22T23:44:39.000Z,4.15
2023-01-22T23:47:05.000Z,3.87
2023-01-22T23:49:31.000Z,3.9
2023-01-22T23:51:57.000Z,3.87
2023-01-22T23:54:22.000Z,3.85
2023-01-22T23:56:48.000Z,3.6
2023-01-22T23:59:15.000Z,3.73
